Карточка аэропорта UATT

Внимание!
Информация на этой странице в стадии наполнения.
Если вы не увидели какой-то информации, или заметили неточность - пожалуйста сообщите нам!
Спасибо!
Команда RU-STAFF
Название аэропортаАктобе
Название аэропорта (англ.)Aktobe
Превышение738 ft. (224.9 m.)
Координаты50°14.748', 57°12.402'
Высота перехода10000ft
Эшелон переходаFL120, QNH<733:FL130
Коды ответчика3440-3447, 3540-3547
Зона ОрВДАктобе РПИ (UATT)
Данные METARUATT 271930Z 00000MPS CAVOK 05/03 Q1019 NOSIG RMK QFE744/0993
Проноз погоды (TAF)UATT 271701Z 2718/2818 VRB01MPS 9999 SCT040 TX15/2812Z TN01/2802Z TEMPO 2720/2804 1000 BR SCT011 BECMG 2804/2805 15003MPS BKN040 TEMPO 2812/2818 12002G08MPS 5000 -SHRA BR SCT011 BKN033CB
NOTAMshow/hide NOTAM
AWOS   TABLE

Информация о ВПП

ВПП Длина ВПП (м.) Покрытие Курс ВПП Частота ILS
133202Бетон135111.7
313202Бетон315111.7

Диспетчерские позиции




Спутниковое изображение